sensor_id;sensor_type;location;lat;lon;timestamp;temperature;humidity
21849;DHT22;11089;49.852;19.700;2022-08-02T00:01:25;19.10;1.00
21849;DHT22;11089;49.852;19.700;2022-08-02T00:04:26;19.10;1.00
21849;DHT22;11089;49.852;19.700;2022-08-02T00:07:27;19.10;1.00
21849;DHT22;11089;49.852;19.700;2022-08-02T00:10:28;19.00;1.00
21849;DHT22;11089;49.852;19.700;2022-08-02T00:13:29;19.00;1.00
21849;DHT22;11089;49.852;19.700;2022-08-02T00:16:30;19.10;1.00
21849;DHT22;11089;49.852;19.700;2022-08-02T00:19:32;18.90;1.00
21849;DHT22;11089;49.852;19.700;2022-08-02T00:22:33;19.00;1.00
21849;DHT22;11089;49.852;19.700;2022-08-02T00:25:34;19.00;1.00
21849;DHT22;11089;49.852;19.700;2022-08-02T00:28:34;19.00;1.00
21849;DHT22;11089;49.852;19.700;2022-08-02T00:31:35;19.00;1.00
21849;DHT22;11089;49.852;19.700;2022-08-02T00:34:36;19.00;1.00
21849;DHT22;11089;49.852;19.700;2022-08-02T00:37:38;19.00;1.00
21849;DHT22;11089;49.852;19.700;2022-08-02T00:40:40;18.90;1.00
21849;DHT22;11089;49.852;19.700;2022-08-02T00:43:42;18.90;1.00
21849;DHT22;11089;49.852;19.700;2022-08-02T00:46:43;18.80;1.00
21849;DHT22;11089;49.852;19.700;2022-08-02T00:49:44;18.70;1.00
21849;DHT22;11089;49.852;19.700;2022-08-02T00:52:45;18.60;1.00
21849;DHT22;11089;49.852;19.700;2022-08-02T00:55:46;18.50;1.00
21849;DHT22;11089;49.852;19.700;2022-08-02T00:58:47;18.60;1.00
21849;DHT22;11089;49.852;19.700;2022-08-02T01:01:48;18.70;1.00
21849;DHT22;11089;49.852;19.700;2022-08-02T01:04:49;18.60;1.00
21849;DHT22;11089;49.852;19.700;2022-08-02T01:07:50;18.70;1.00
21849;DHT22;11089;49.852;19.700;2022-08-02T01:10:51;18.70;1.00
21849;DHT22;11089;49.852;19.700;2022-08-02T01:13:54;18.70;1.00
21849;DHT22;11089;49.852;19.700;2022-08-02T01:26:51;18.60;1.00
21849;DHT22;11089;49.852;19.700;2022-08-02T01:29:58;18.60;1.00
21849;DHT22;11089;49.852;19.700;2022-08-02T01:33:02;18.70;1.00
21849;DHT22;11089;49.852;19.700;2022-08-02T01:36:05;18.70;1.00
21849;DHT22;11089;49.852;19.700;2022-08-02T01:39:12;18.70;1.00
21849;DHT22;11089;49.852;19.700;2022-08-02T01:42:15;18.80;1.00
21849;DHT22;11089;49.852;19.700;2022-08-02T01:45:17;18.80;1.00
21849;DHT22;11089;49.852;19.700;2022-08-02T01:48:19;18.80;1.00
21849;DHT22;11089;49.852;19.700;2022-08-02T01:51:22;18.80;1.00
21849;DHT22;11089;49.852;19.700;2022-08-02T01:54:44;18.70;1.00
21849;DHT22;11089;49.852;19.700;2022-08-02T01:57:51;18.80;1.00
21849;DHT22;11089;49.852;19.700;2022-08-02T02:00:56;18.70;1.00
21849;DHT22;11089;49.852;19.700;2022-08-02T02:03:58;18.70;15.50
21849;DHT22;11089;49.852;19.700;2022-08-02T02:07:01;18.70;3.50
21849;DHT22;11089;49.852;19.700;2022-08-02T02:10:03;18.80;10.70
21849;DHT22;11089;49.852;19.700;2022-08-02T02:13:11;18.80;1.00
21849;DHT22;11089;49.852;19.700;2022-08-02T02:16:14;18.80;1.00
21849;DHT22;11089;49.852;19.700;2022-08-02T02:19:17;18.80;3.40
21849;DHT22;11089;49.852;19.700;2022-08-02T02:22:19;18.80;22.40
21849;DHT22;11089;49.852;19.700;2022-08-02T02:25:21;18.80;29.20
21849;DHT22;11089;49.852;19.700;2022-08-02T02:28:25;18.80;30.60
21849;DHT22;11089;49.852;19.700;2022-08-02T02:31:35;18.80;33.30
21849;DHT22;11089;49.852;19.700;2022-08-02T02:34:41;18.80;9.70
21849;DHT22;11089;49.852;19.700;2022-08-02T02:37:44;18.80;11.80
21849;DHT22;11089;49.852;19.700;2022-08-02T02:40:46;18.90;1.00
21849;DHT22;11089;49.852;19.700;2022-08-02T02:43:48;18.90;1.00
21849;DHT22;11089;49.852;19.700;2022-08-02T02:46:52;18.90;1.00
21849;DHT22;11089;49.852;19.700;2022-08-02T02:49:56;18.80;9.30
21849;DHT22;11089;49.852;19.700;2022-08-02T02:52:58;18.90;11.20
21849;DHT22;11089;49.852;19.700;2022-08-02T02:56:00;18.80;18.30
21849;DHT22;11089;49.852;19.700;2022-08-02T02:59:02;18.90;1.00
21849;DHT22;11089;49.852;19.700;2022-08-02T03:02:03;18.90;1.00
21849;DHT22;11089;49.852;19.700;2022-08-02T03:05:06;18.90;1.00
21849;DHT22;11089;49.852;19.700;2022-08-02T03:08:07;18.90;1.00
21849;DHT22;11089;49.852;19.700;2022-08-02T03:11:09;18.90;1.00
21849;DHT22;11089;49.852;19.700;2022-08-02T03:14:11;18.80;6.60
21849;DHT22;11089;49.852;19.700;2022-08-02T03:17:12;18.80;1.00
21849;DHT22;11089;49.852;19.700;2022-08-02T03:20:15;18.80;1.00
21849;DHT22;11089;49.852;19.700;2022-08-02T03:23:16;18.80;7.30
21849;DHT22;11089;49.852;19.700;2022-08-02T03:26:17;18.80;19.40
21849;DHT22;11089;49.852;19.700;2022-08-02T03:29:18;18.80;28.30
21849;DHT22;11089;49.852;19.700;2022-08-02T03:32:19;18.70;56.30
21849;DHT22;11089;49.852;19.700;2022-08-02T03:35:20;18.70;63.50
21849;DHT22;11089;49.852;19.700;2022-08-02T03:38:22;18.80;44.40
21849;DHT22;11089;49.852;19.700;2022-08-02T03:41:25;18.70;49.80
21849;DHT22;11089;49.852;19.700;2022-08-02T03:44:26;18.80;34.00
21849;DHT22;11089;49.852;19.700;2022-08-02T03:47:27;18.80;27.80
21849;DHT22;11089;49.852;19.700;2022-08-02T03:50:29;18.80;8.60
21849;DHT22;11089;49.852;19.700;2022-08-02T03:53:31;18.80;5.50
21849;DHT22;11089;49.852;19.700;2022-08-02T03:56:33;18.80;1.00
21849;DHT22;11089;49.852;19.700;2022-08-02T03:59:44;18.80;1.00
21849;DHT22;11089;49.852;19.700;2022-08-02T04:02:46;18.90;1.00
21849;DHT22;11089;49.852;19.700;2022-08-02T04:05:47;18.90;1.00
21849;DHT22;11089;49.852;19.700;2022-08-02T04:08:48;18.80;1.00
21849;DHT22;11089;49.852;19.700;2022-08-02T04:11:52;18.80;1.00
21849;DHT22;11089;49.852;19.700;2022-08-02T04:14:53;18.80;1.00
21849;DHT22;11089;49.852;19.700;2022-08-02T04:17:55;18.80;1.00
21849;DHT22;11089;49.852;19.700;2022-08-02T04:21:01;18.80;1.00
21849;DHT22;11089;49.852;19.700;2022-08-02T04:24:05;18.90;2.00
21849;DHT22;11089;49.852;19.700;2022-08-02T04:27:09;18.80;1.00
21849;DHT22;11089;49.852;19.700;2022-08-02T04:30:10;18.90;1.00
21849;DHT22;11089;49.852;19.700;2022-08-02T04:33:11;19.00;1.00
21849;DHT22;11089;49.852;19.700;2022-08-02T04:36:13;18.90;13.10
21849;DHT22;11089;49.852;19.700;2022-08-02T04:39:14;18.90;8.10
21849;DHT22;11089;49.852;19.700;2022-08-02T04:42:25;19.00;19.70
21849;DHT22;11089;49.852;19.700;2022-08-02T04:45:26;18.90;29.20
21849;DHT22;11089;49.852;19.700;2022-08-02T04:48:29;19.00;15.10
21849;DHT22;11089;49.852;19.700;2022-08-02T04:51:32;19.00;12.00
21849;DHT22;11089;49.852;19.700;2022-08-02T04:54:33;19.10;2.90
21849;DHT22;11089;49.852;19.700;2022-08-02T04:57:34;19.10;1.00
21849;DHT22;11089;49.852;19.700;2022-08-02T05:01:04;19.10;5.10
21849;DHT22;11089;49.852;19.700;2022-08-02T05:04:05;19.10;19.40
21849;DHT22;11089;49.852;19.700;2022-08-02T05:07:06;19.10;10.00
21849;DHT22;11089;49.852;19.700;2022-08-02T05:10:07;19.10;1.50
21849;DHT22;11089;49.852;19.700;2022-08-02T05:13:07;19.10;1.00
21849;DHT22;11089;49.852;19.700;2022-08-02T05:16:09;19.10;1.00
21849;DHT22;11089;49.852;19.700;2022-08-02T05:19:09;19.10;7.30
21849;DHT22;11089;49.852;19.700;2022-08-02T05:22:10;19.20;1.00
21849;DHT22;11089;49.852;19.700;2022-08-02T05:25:11;19.20;1.00
21849;DHT22;11089;49.852;19.700;2022-08-02T05:28:12;19.20;1.00
21849;DHT22;11089;49.852;19.700;2022-08-02T05:31:13;19.30;1.00
21849;DHT22;11089;49.852;19.700;2022-08-02T05:34:14;19.30;1.00
21849;DHT22;11089;49.852;19.700;2022-08-02T05:37:15;19.30;1.00
21849;DHT22;11089;49.852;19.700;2022-08-02T05:40:17;19.30;1.00
21849;DHT22;11089;49.852;19.700;2022-08-02T05:43:17;19.30;1.00
21849;DHT22;11089;49.852;19.700;2022-08-02T05:46:20;19.40;1.00
21849;DHT22;11089;49.852;19.700;2022-08-02T05:49:21;19.30;1.00
21849;DHT22;11089;49.852;19.700;2022-08-02T05:52:25;19.40;1.00
21849;DHT22;11089;49.852;19.700;2022-08-02T05:55:30;19.50;1.00
21849;DHT22;11089;49.852;19.700;2022-08-02T05:58:47;19.60;1.00
21849;DHT22;11089;49.852;19.700;2022-08-02T06:01:55;19.40;1.00
21849;DHT22;11089;49.852;19.700;2022-08-02T06:05:03;19.50;1.00
21849;DHT22;11089;49.852;19.700;2022-08-02T06:08:06;19.50;1.00
21849;DHT22;11089;49.852;19.700;2022-08-02T06:11:13;19.60;1.00
21849;DHT22;11089;49.852;19.700;2022-08-02T06:14:14;19.80;1.00
21849;DHT22;11089;49.852;19.700;2022-08-02T06:17:16;19.80;1.00
21849;DHT22;11089;49.852;19.700;2022-08-02T06:20:19;19.90;1.00
21849;DHT22;11089;49.852;19.700;2022-08-02T06:23:20;19.90;1.00
21849;DHT22;11089;49.852;19.700;2022-08-02T06:26:23;19.90;1.00
21849;DHT22;11089;49.852;19.700;2022-08-02T06:29:24;20.00;1.00
21849;DHT22;11089;49.852;19.700;2022-08-02T06:32:26;19.90;1.00
21849;DHT22;11089;49.852;19.700;2022-08-02T06:35:48;20.10;1.00
21849;DHT22;11089;49.852;19.700;2022-08-02T06:39:01;20.20;1.00
21849;DHT22;11089;49.852;19.700;2022-08-02T06:42:11;20.20;1.00
21849;DHT22;11089;49.852;19.700;2022-08-02T06:45:12;20.30;1.00
21849;DHT22;11089;49.852;19.700;2022-08-02T06:48:13;20.40;1.00
21849;DHT22;11089;49.852;19.700;2022-08-02T06:51:14;20.50;1.00
21849;DHT22;11089;49.852;19.700;2022-08-02T06:54:15;20.60;99.90
21849;DHT22;11089;49.852;19.700;2022-08-02T06:57:21;20.60;99.90
21849;DHT22;11089;49.852;19.700;2022-08-02T07:00:22;20.50;99.90
21849;DHT22;11089;49.852;19.700;2022-08-02T07:03:23;20.70;1.00
21849;DHT22;11089;49.852;19.700;2022-08-02T07:06:25;20.70;1.00
21849;DHT22;11089;49.852;19.700;2022-08-02T07:09:26;21.10;99.90
21849;DHT22;11089;49.852;19.700;2022-08-02T07:12:31;21.40;99.90
21849;DHT22;11089;49.852;19.700;2022-08-02T07:15:32;21.50;99.90
21849;DHT22;11089;49.852;19.700;2022-08-02T07:18:33;21.50;1.00
21849;DHT22;11089;49.852;19.700;2022-08-02T07:21:34;21.50;1.00
21849;DHT22;11089;49.852;19.700;2022-08-02T07:24:35;21.60;1.00
21849;DHT22;11089;49.852;19.700;2022-08-02T07:27:36;21.70;1.00
21849;DHT22;11089;49.852;19.700;2022-08-02T07:30:37;21.70;99.90
21849;DHT22;11089;49.852;19.700;2022-08-02T07:33:38;21.70;1.00
21849;DHT22;11089;49.852;19.700;2022-08-02T07:36:39;21.60;1.00
21849;DHT22;11089;49.852;19.700;2022-08-02T07:39:40;21.60;1.00
21849;DHT22;11089;49.852;19.700;2022-08-02T07:42:42;21.60;1.00
21849;DHT22;11089;49.852;19.700;2022-08-02T07:45:43;21.70;99.90
21849;DHT22;11089;49.852;19.700;2022-08-02T07:48:45;21.90;1.00
21849;DHT22;11089;49.852;19.700;2022-08-02T07:51:47;22.20;1.00
21849;DHT22;11089;49.852;19.700;2022-08-02T07:54:48;22.60;1.00
21849;DHT22;11089;49.852;19.700;2022-08-02T07:57:49;22.70;1.00
21849;DHT22;11089;49.852;19.700;2022-08-02T08:00:50;22.70;1.00
21849;DHT22;11089;49.852;19.700;2022-08-02T08:03:51;22.80;99.90
21849;DHT22;11089;49.852;19.700;2022-08-02T08:06:52;22.70;1.00
21849;DHT22;11089;49.852;19.700;2022-08-02T08:09:53;22.50;1.00
21849;DHT22;11089;49.852;19.700;2022-08-02T08:12:54;22.60;1.00
21849;DHT22;11089;49.852;19.700;2022-08-02T08:15:55;22.70;99.90
21849;DHT22;11089;49.852;19.700;2022-08-02T08:18:56;22.70;1.00
21849;DHT22;11089;49.852;19.700;2022-08-02T08:21:57;23.00;1.00
21849;DHT22;11089;49.852;19.700;2022-08-02T08:25:01;23.10;99.90
21849;DHT22;11089;49.852;19.700;2022-08-02T08:28:02;23.00;1.00
21849;DHT22;11089;49.852;19.700;2022-08-02T08:31:03;22.90;1.00
21849;DHT22;11089;49.852;19.700;2022-08-02T08:34:04;23.00;1.00
21849;DHT22;11089;49.852;19.700;2022-08-02T08:37:05;23.30;1.00
21849;DHT22;11089;49.852;19.700;2022-08-02T08:40:08;23.70;99.90
21849;DHT22;11089;49.852;19.700;2022-08-02T08:43:13;24.00;1.00
21849;DHT22;11089;49.852;19.700;2022-08-02T08:46:35;24.00;1.00
21849;DHT22;11089;49.852;19.700;2022-08-02T08:49:40;24.00;15.70
21849;DHT22;11089;49.852;19.700;2022-08-02T08:53:07;24.10;1.00
21849;DHT22;11089;49.852;19.700;2022-08-02T08:56:10;24.20;1.00
21849;DHT22;11089;49.852;19.700;2022-08-02T08:59:12;24.00;99.90
21849;DHT22;11089;49.852;19.700;2022-08-02T09:02:12;23.90;99.90
21849;DHT22;11089;49.852;19.700;2022-08-02T09:05:15;23.90;1.00
21849;DHT22;11089;49.852;19.700;2022-08-02T09:08:16;23.60;99.90
21849;DHT22;11089;49.852;19.700;2022-08-02T09:11:22;23.50;1.00
21849;DHT22;11089;49.852;19.700;2022-08-02T09:14:28;23.70;1.00
21849;DHT22;11089;49.852;19.700;2022-08-02T09:17:29;23.90;1.00
21849;DHT22;11089;49.852;19.700;2022-08-02T09:20:35;24.00;99.90
21849;DHT22;11089;49.852;19.700;2022-08-02T09:23:51;24.00;1.00
21849;DHT22;11089;49.852;19.700;2022-08-02T09:26:52;24.10;1.00
21849;DHT22;11089;49.852;19.700;2022-08-02T09:29:53;24.10;1.00
21849;DHT22;11089;49.852;19.700;2022-08-02T09:32:54;24.30;1.00
21849;DHT22;11089;49.852;19.700;2022-08-02T09:36:10;24.50;99.90
21849;DHT22;11089;49.852;19.700;2022-08-02T09:39:15;24.70;1.00
21849;DHT22;11089;49.852;19.700;2022-08-02T09:42:17;24.80;1.00
21849;DHT22;11089;49.852;19.700;2022-08-02T09:45:19;25.10;1.00
21849;DHT22;11089;49.852;19.700;2022-08-02T09:48:20;25.00;1.00
21849;DHT22;11089;49.852;19.700;2022-08-02T09:51:31;24.80;1.00
21849;DHT22;11089;49.852;19.700;2022-08-02T09:54:34;25.00;1.00
21849;DHT22;11089;49.852;19.700;2022-08-02T09:57:38;25.00;1.00
21849;DHT22;11089;49.852;19.700;2022-08-02T10:00:53;25.30;1.00
21849;DHT22;11089;49.852;19.700;2022-08-02T10:04:01;25.50;1.00
21849;DHT22;11089;49.852;19.700;2022-08-02T10:07:03;25.10;99.90
21849;DHT22;11089;49.852;19.700;2022-08-02T10:10:05;24.90;1.00
21849;DHT22;11089;49.852;19.700;2022-08-02T10:13:06;25.00;1.00
21849;DHT22;11089;49.852;19.700;2022-08-02T10:16:07;25.00;1.00
21849;DHT22;11089;49.852;19.700;2022-08-02T10:19:08;25.40;99.90
21849;DHT22;11089;49.852;19.700;2022-08-02T10:22:11;25.80;99.90
21849;DHT22;11089;49.852;19.700;2022-08-02T10:25:13;26.30;99.40
21849;DHT22;11089;49.852;19.700;2022-08-02T10:28:15;26.20;1.00
21849;DHT22;11089;49.852;19.700;2022-08-02T10:31:19;25.90;1.00
21849;DHT22;11089;49.852;19.700;2022-08-02T10:34:35;25.80;99.90
21849;DHT22;11089;49.852;19.700;2022-08-02T10:37:39;26.10;99.90
21849;DHT22;11089;49.852;19.700;2022-08-02T10:40:51;26.40;1.00
21849;DHT22;11089;49.852;19.700;2022-08-02T10:43:53;26.50;1.00
21849;DHT22;11089;49.852;19.700;2022-08-02T10:50:13;25.80;1.00
21849;DHT22;11089;49.852;19.700;2022-08-02T10:53:29;26.30;1.00
21849;DHT22;11089;49.852;19.700;2022-08-02T10:56:44;26.80;1.00
21849;DHT22;11089;49.852;19.700;2022-08-02T10:59:47;27.10;1.00
21849;DHT22;11089;49.852;19.700;2022-08-02T11:02:48;27.20;1.00
21849;DHT22;11089;49.852;19.700;2022-08-02T11:06:01;27.40;1.00
21849;DHT22;11089;49.852;19.700;2022-08-02T11:12:31;27.90;1.00
21849;DHT22;11089;49.852;19.700;2022-08-02T11:22:06;28.20;1.00
21849;DHT22;11089;49.852;19.700;2022-08-02T11:28:23;28.50;99.90
21849;DHT22;11089;49.852;19.700;2022-08-02T11:31:25;28.40;99.90
21849;DHT22;11089;49.852;19.700;2022-08-02T11:34:26;28.70;99.90
21849;DHT22;11089;49.852;19.700;2022-08-02T11:37:29;28.80;99.90
21849;DHT22;11089;49.852;19.700;2022-08-02T11:40:37;28.50;99.90
21849;DHT22;11089;49.852;19.700;2022-08-02T11:43:39;28.00;99.90
21849;DHT22;11089;49.852;19.700;2022-08-02T11:46:40;27.90;99.90
21849;DHT22;11089;49.852;19.700;2022-08-02T11:49:41;27.70;1.00
21849;DHT22;11089;49.852;19.700;2022-08-02T11:52:44;27.40;1.00
21849;DHT22;11089;49.852;19.700;2022-08-02T11:55:44;27.20;1.00
21849;DHT22;11089;49.852;19.700;2022-08-02T12:02:04;27.90;1.00
21849;DHT22;11089;49.852;19.700;2022-08-02T12:05:06;28.00;1.00
21849;DHT22;11089;49.852;19.700;2022-08-02T12:08:07;28.10;99.90
21849;DHT22;11089;49.852;19.700;2022-08-02T12:11:08;28.20;99.90
21849;DHT22;11089;49.852;19.700;2022-08-02T12:14:09;28.30;1.00
21849;DHT22;11089;49.852;19.700;2022-08-02T12:17:10;28.60;99.90
21849;DHT22;11089;49.852;19.700;2022-08-02T12:20:35;28.70;1.00
21849;DHT22;11089;49.852;19.700;2022-08-02T12:23:42;28.30;99.90
21849;DHT22;11089;49.852;19.700;2022-08-02T12:26:46;28.30;99.90
21849;DHT22;11089;49.852;19.700;2022-08-02T12:29:47;28.10;99.90
21849;DHT22;11089;49.852;19.700;2022-08-02T12:33:07;28.20;99.90
21849;DHT22;11089;49.852;19.700;2022-08-02T12:36:24;28.50;99.90
21849;DHT22;11089;49.852;19.700;2022-08-02T12:39:43;28.70;99.90
21849;DHT22;11089;49.852;19.700;2022-08-02T12:42:46;28.90;99.90
21849;DHT22;11089;49.852;19.700;2022-08-02T12:45:53;28.90;99.90
21849;DHT22;11089;49.852;19.700;2022-08-02T12:48:54;29.00;99.90
21849;DHT22;11089;49.852;19.700;2022-08-02T12:51:55;28.90;99.90
21849;DHT22;11089;49.852;19.700;2022-08-02T12:54:56;28.90;99.90
21849;DHT22;11089;49.852;19.700;2022-08-02T12:57:59;28.90;99.90
21849;DHT22;11089;49.852;19.700;2022-08-02T13:01:00;29.10;99.90
21849;DHT22;11089;49.852;19.700;2022-08-02T13:04:01;29.00;99.90
21849;DHT22;11089;49.852;19.700;2022-08-02T13:07:03;28.70;99.90
21849;DHT22;11089;49.852;19.700;2022-08-02T13:10:05;28.70;99.90
21849;DHT22;11089;49.852;19.700;2022-08-02T13:13:06;28.80;99.90
21849;DHT22;11089;49.852;19.700;2022-08-02T13:16:08;28.80;99.90
21849;DHT22;11089;49.852;19.700;2022-08-02T13:19:09;28.90;99.90
21849;DHT22;11089;49.852;19.700;2022-08-02T13:22:10;28.50;99.90
21849;DHT22;11089;49.852;19.700;2022-08-02T13:25:11;28.50;99.90
21849;DHT22;11089;49.852;19.700;2022-08-02T13:28:12;28.30;99.90
21849;DHT22;11089;49.852;19.700;2022-08-02T13:31:12;28.00;99.90
21849;DHT22;11089;49.852;19.700;2022-08-02T13:34:13;28.20;99.90
21849;DHT22;11089;49.852;19.700;2022-08-02T13:37:16;28.50;99.90
21849;DHT22;11089;49.852;19.700;2022-08-02T13:40:17;28.50;99.90
21849;DHT22;11089;49.852;19.700;2022-08-02T13:43:18;28.30;99.90
21849;DHT22;11089;49.852;19.700;2022-08-02T13:46:18;28.20;99.90
21849;DHT22;11089;49.852;19.700;2022-08-02T13:49:20;28.20;99.90
21849;DHT22;11089;49.852;19.700;2022-08-02T13:52:21;28.00;99.90
21849;DHT22;11089;49.852;19.700;2022-08-02T13:55:22;27.90;99.90
21849;DHT22;11089;49.852;19.700;2022-08-02T13:58:23;27.90;99.90
21849;DHT22;11089;49.852;19.700;2022-08-02T14:01:25;27.60;99.90
21849;DHT22;11089;49.852;19.700;2022-08-02T14:04:26;27.60;99.90
21849;DHT22;11089;49.852;19.700;2022-08-02T14:07:27;27.60;1.00
21849;DHT22;11089;49.852;19.700;2022-08-02T14:10:28;27.60;1.00
21849;DHT22;11089;49.852;19.700;2022-08-02T14:13:29;27.30;99.90
21849;DHT22;11089;49.852;19.700;2022-08-02T14:16:30;27.20;99.90
21849;DHT22;11089;49.852;19.700;2022-08-02T14:19:31;27.20;99.90
21849;DHT22;11089;49.852;19.700;2022-08-02T14:22:32;27.20;1.00
21849;DHT22;11089;49.852;19.700;2022-08-02T14:25:33;27.30;1.00
21849;DHT22;11089;49.852;19.700;2022-08-02T14:28:34;27.30;99.90
21849;DHT22;11089;49.852;19.700;2022-08-02T14:31:35;27.30;1.00
21849;DHT22;11089;49.852;19.700;2022-08-02T14:34:36;27.20;1.00
21849;DHT22;11089;49.852;19.700;2022-08-02T14:37:37;27.20;99.90
21849;DHT22;11089;49.852;19.700;2022-08-02T14:40:38;27.20;1.00
21849;DHT22;11089;49.852;19.700;2022-08-02T14:43:38;27.00;1.00
21849;DHT22;11089;49.852;19.700;2022-08-02T14:46:54;26.90;1.00
21849;DHT22;11089;49.852;19.700;2022-08-02T14:49:55;26.60;1.00
21849;DHT22;11089;49.852;19.700;2022-08-02T14:52:55;26.30;1.00
21849;DHT22;11089;49.852;19.700;2022-08-02T14:55:56;26.40;1.00
21849;DHT22;11089;49.852;19.700;2022-08-02T14:58:58;26.20;1.00
21849;DHT22;11089;49.852;19.700;2022-08-02T15:01:59;26.00;1.00
21849;DHT22;11089;49.852;19.700;2022-08-02T15:05:00;25.90;1.00
21849;DHT22;11089;49.852;19.700;2022-08-02T15:08:01;25.90;1.00
21849;DHT22;11089;49.852;19.700;2022-08-02T15:11:02;25.90;1.00
21849;DHT22;11089;49.852;19.700;2022-08-02T15:14:03;25.60;1.00
21849;DHT22;11089;49.852;19.700;2022-08-02T15:17:05;25.50;1.00
21849;DHT22;11089;49.852;19.700;2022-08-02T15:20:06;25.50;1.00
21849;DHT22;11089;49.852;19.700;2022-08-02T15:23:07;25.40;1.00
21849;DHT22;11089;49.852;19.700;2022-08-02T15:26:08;25.50;1.00
21849;DHT22;11089;49.852;19.700;2022-08-02T15:29:09;25.60;1.00
21849;DHT22;11089;49.852;19.700;2022-08-02T15:32:11;25.80;1.00
21849;DHT22;11089;49.852;19.700;2022-08-02T15:35:12;25.70;1.00
21849;DHT22;11089;49.852;19.700;2022-08-02T15:38:13;25.70;1.00
21849;DHT22;11089;49.852;19.700;2022-08-02T15:41:14;25.60;1.00
21849;DHT22;11089;49.852;19.700;2022-08-02T15:44:15;25.50;1.00
21849;DHT22;11089;49.852;19.700;2022-08-02T15:47:15;25.60;1.00
21849;DHT22;11089;49.852;19.700;2022-08-02T15:50:17;25.50;1.00
21849;DHT22;11089;49.852;19.700;2022-08-02T15:53:18;25.40;1.00
21849;DHT22;11089;49.852;19.700;2022-08-02T15:56:18;25.20;1.00
21849;DHT22;11089;49.852;19.700;2022-08-02T15:59:19;25.10;68.40
21849;DHT22;11089;49.852;19.700;2022-08-02T16:02:20;25.00;99.90
21849;DHT22;11089;49.852;19.700;2022-08-02T16:05:21;25.00;99.90
21849;DHT22;11089;49.852;19.700;2022-08-02T16:08:22;24.80;99.90
21849;DHT22;11089;49.852;19.700;2022-08-02T16:11:23;24.90;1.00
21849;DHT22;11089;49.852;19.700;2022-08-02T16:14:24;24.80;1.00
21849;DHT22;11089;49.852;19.700;2022-08-02T16:17:25;24.60;77.50
21849;DHT22;11089;49.852;19.700;2022-08-02T16:20:26;24.60;99.90
21849;DHT22;11089;49.852;19.700;2022-08-02T16:23:26;24.50;99.90
21849;DHT22;11089;49.852;19.700;2022-08-02T16:26:29;24.40;99.90
21849;DHT22;11089;49.852;19.700;2022-08-02T16:29:30;24.40;1.00
21849;DHT22;11089;49.852;19.700;2022-08-02T16:32:31;24.30;7.00
21849;DHT22;11089;49.852;19.700;2022-08-02T16:35:32;24.30;31.30
21849;DHT22;11089;49.852;19.700;2022-08-02T16:38:34;24.30;99.90
21849;DHT22;11089;49.852;19.700;2022-08-02T16:41:35;24.10;1.00
21849;DHT22;11089;49.852;19.700;2022-08-02T16:44:36;24.10;1.00
21849;DHT22;11089;49.852;19.700;2022-08-02T16:47:36;24.10;99.90
21849;DHT22;11089;49.852;19.700;2022-08-02T16:50:38;24.10;99.90
21849;DHT22;11089;49.852;19.700;2022-08-02T16:53:39;24.10;1.00
21849;DHT22;11089;49.852;19.700;2022-08-02T16:56:41;24.00;1.00
21849;DHT22;11089;49.852;19.700;2022-08-02T16:59:43;23.90;1.00
21849;DHT22;11089;49.852;19.700;2022-08-02T17:02:44;24.00;1.00
21849;DHT22;11089;49.852;19.700;2022-08-02T17:05:48;23.90;1.00
21849;DHT22;11089;49.852;19.700;2022-08-02T17:08:49;23.90;1.00
21849;DHT22;11089;49.852;19.700;2022-08-02T17:11:51;23.90;99.90
21849;DHT22;11089;49.852;19.700;2022-08-02T17:14:52;23.80;1.00
21849;DHT22;11089;49.852;19.700;2022-08-02T17:17:54;23.70;1.00
21849;DHT22;11089;49.852;19.700;2022-08-02T17:20:55;23.70;1.00
21849;DHT22;11089;49.852;19.700;2022-08-02T17:23:56;23.60;1.00
21849;DHT22;11089;49.852;19.700;2022-08-02T17:26:57;23.60;1.00
21849;DHT22;11089;49.852;19.700;2022-08-02T17:29:57;23.60;99.90
21849;DHT22;11089;49.852;19.700;2022-08-02T17:32:58;23.60;1.00
21849;DHT22;11089;49.852;19.700;2022-08-02T17:35:59;23.50;99.90
21849;DHT22;11089;49.852;19.700;2022-08-02T17:39:00;23.50;99.90
21849;DHT22;11089;49.852;19.700;2022-08-02T17:42:02;23.40;99.90
21849;DHT22;11089;49.852;19.700;2022-08-02T17:45:03;23.40;99.90
21849;DHT22;11089;49.852;19.700;2022-08-02T17:48:04;23.40;99.90
21849;DHT22;11089;49.852;19.700;2022-08-02T17:51:05;23.40;99.90
21849;DHT22;11089;49.852;19.700;2022-08-02T17:54:06;23.40;99.90
21849;DHT22;11089;49.852;19.700;2022-08-02T17:57:07;23.30;99.90
21849;DHT22;11089;49.852;19.700;2022-08-02T18:00:08;23.20;99.90
21849;DHT22;11089;49.852;19.700;2022-08-02T18:03:09;23.20;99.90
21849;DHT22;11089;49.852;19.700;2022-08-02T18:06:10;23.20;99.90
21849;DHT22;11089;49.852;19.700;2022-08-02T18:09:11;23.00;1.00
21849;DHT22;11089;49.852;19.700;2022-08-02T18:12:13;22.90;99.90
21849;DHT22;11089;49.852;19.700;2022-08-02T18:15:14;22.80;1.00
21849;DHT22;11089;49.852;19.700;2022-08-02T18:18:15;22.70;1.00
21849;DHT22;11089;49.852;19.700;2022-08-02T18:21:16;22.60;1.00
21849;DHT22;11089;49.852;19.700;2022-08-02T18:24:17;22.60;1.00
21849;DHT22;11089;49.852;19.700;2022-08-02T18:27:18;22.50;1.00
21849;DHT22;11089;49.852;19.700;2022-08-02T18:30:19;22.30;99.90
21849;DHT22;11089;49.852;19.700;2022-08-02T18:33:21;22.30;99.90
21849;DHT22;11089;49.852;19.700;2022-08-02T18:36:21;22.30;98.10
21849;DHT22;11089;49.852;19.700;2022-08-02T18:39:22;22.10;99.90
21849;DHT22;11089;49.852;19.700;2022-08-02T18:42:23;21.90;1.00
21849;DHT22;11089;49.852;19.700;2022-08-02T18:45:24;21.80;1.00
21849;DHT22;11089;49.852;19.700;2022-08-02T18:48:25;21.80;1.00
21849;DHT22;11089;49.852;19.700;2022-08-02T18:51:26;21.60;99.90
21849;DHT22;11089;49.852;19.700;2022-08-02T18:54:27;21.40;1.00
21849;DHT22;11089;49.852;19.700;2022-08-02T18:57:29;21.40;1.00
21849;DHT22;11089;49.852;19.700;2022-08-02T19:00:30;21.40;99.90
21849;DHT22;11089;49.852;19.700;2022-08-02T19:03:30;21.10;1.00
21849;DHT22;11089;49.852;19.700;2022-08-02T19:06:32;21.10;1.00
21849;DHT22;11089;49.852;19.700;2022-08-02T19:09:32;20.90;99.90
21849;DHT22;11089;49.852;19.700;2022-08-02T19:12:33;21.00;99.90
21849;DHT22;11089;49.852;19.700;2022-08-02T19:15:34;20.80;1.00
21849;DHT22;11089;49.852;19.700;2022-08-02T19:18:35;20.40;1.00
21849;DHT22;11089;49.852;19.700;2022-08-02T19:21:37;20.40;36.30
21849;DHT22;11089;49.852;19.700;2022-08-02T19:24:38;20.50;1.00
21849;DHT22;11089;49.852;19.700;2022-08-02T19:27:39;20.30;1.00
21849;DHT22;11089;49.852;19.700;2022-08-02T19:30:40;20.30;87.90
21849;DHT22;11089;49.852;19.700;2022-08-02T19:33:42;20.10;1.00
21849;DHT22;11089;49.852;19.700;2022-08-02T19:36:43;19.80;1.00